sensor_id;sensor_type;location;lat;lon;timestamp;P1;durP1;ratioP1;P2;durP2;ratioP2
20022;SDS011;10172;42.054;24.546;2023-07-31T00:00:31;2.25;;;1.20;;
20022;SDS011;10172;42.054;24.546;2023-07-31T00:02:57;2.65;;;1.27;;
20022;SDS011;10172;42.054;24.546;2023-07-31T00:05:22;1.02;;;0.82;;
20022;SDS011;10172;42.054;24.546;2023-07-31T00:07:47;2.72;;;1.48;;
20022;SDS011;10172;42.054;24.546;2023-07-31T00:10:13;1.60;;;1.10;;
20022;SDS011;10172;42.054;24.546;2023-07-31T00:12:39;3.28;;;1.17;;
20022;SDS011;10172;42.054;24.546;2023-07-31T00:15:09;2.40;;;1.00;;
20022;SDS011;10172;42.054;24.546;2023-07-31T00:17:34;2.53;;;0.98;;
20022;SDS011;10172;42.054;24.546;2023-07-31T00:20:01;2.22;;;1.00;;
20022;SDS011;10172;42.054;24.546;2023-07-31T00:22:26;2.33;;;1.20;;
20022;SDS011;10172;42.054;24.546;2023-07-31T00:24:52;1.77;;;0.90;;
20022;SDS011;10172;42.054;24.546;2023-07-31T00:27:17;7.85;;;1.30;;
20022;SDS011;10172;42.054;24.546;2023-07-31T00:29:43;2.05;;;1.08;;
20022;SDS011;10172;42.054;24.546;2023-07-31T00:32:08;1.65;;;1.10;;
20022;SDS011;10172;42.054;24.546;2023-07-31T00:34:34;2.65;;;1.42;;
20022;SDS011;10172;42.054;24.546;2023-07-31T00:36:59;2.00;;;0.98;;
20022;SDS011;10172;42.054;24.546;2023-07-31T00:39:24;0.95;;;0.80;;
20022;SDS011;10172;42.054;24.546;2023-07-31T00:41:50;3.55;;;1.23;;
20022;SDS011;10172;42.054;24.546;2023-07-31T00:44:15;3.47;;;1.20;;
20022;SDS011;10172;42.054;24.546;2023-07-31T00:46:41;3.63;;;1.30;;
20022;SDS011;10172;42.054;24.546;2023-07-31T00:49:06;3.17;;;1.17;;
20022;SDS011;10172;42.054;24.546;2023-07-31T00:51:33;1.88;;;1.02;;
20022;SDS011;10172;42.054;24.546;2023-07-31T00:53:58;1.67;;;1.00;;
20022;SDS011;10172;42.054;24.546;2023-07-31T00:56:24;1.98;;;1.08;;
20022;SDS011;10172;42.054;24.546;2023-07-31T00:58:50;1.40;;;1.00;;
20022;SDS011;10172;42.054;24.546;2023-07-31T01:01:16;3.58;;;1.10;;
20022;SDS011;10172;42.054;24.546;2023-07-31T01:03:41;2.88;;;1.10;;
20022;SDS011;10172;42.054;24.546;2023-07-31T01:12:02;2.47;;;1.20;;
20022;SDS011;10172;42.054;24.546;2023-07-31T01:14:29;2.97;;;1.25;;
20022;SDS011;10172;42.054;24.546;2023-07-31T01:16:55;1.20;;;1.02;;
20022;SDS011;10172;42.054;24.546;2023-07-31T01:19:21;1.70;;;1.02;;
20022;SDS011;10172;42.054;24.546;2023-07-31T01:27:14;2.72;;;0.95;;
20022;SDS011;10172;42.054;24.546;2023-07-31T01:29:49;2.35;;;1.20;;
20022;SDS011;10172;42.054;24.546;2023-07-31T01:32:22;5.40;;;1.40;;
20022;SDS011;10172;42.054;24.546;2023-07-31T01:34:50;1.88;;;0.90;;
20022;SDS011;10172;42.054;24.546;2023-07-31T01:37:17;2.55;;;1.05;;
20022;SDS011;10172;42.054;24.546;2023-07-31T01:39:43;2.10;;;1.10;;
20022;SDS011;10172;42.054;24.546;2023-07-31T01:42:08;2.95;;;1.33;;
20022;SDS011;10172;42.054;24.546;2023-07-31T01:44:34;1.35;;;0.82;;
20022;SDS011;10172;42.054;24.546;2023-07-31T01:46:59;1.70;;;1.17;;
20022;SDS011;10172;42.054;24.546;2023-07-31T01:49:25;3.15;;;1.08;;
20022;SDS011;10172;42.054;24.546;2023-07-31T01:51:50;4.10;;;1.48;;
20022;SDS011;10172;42.054;24.546;2023-07-31T01:54:16;3.28;;;1.05;;
20022;SDS011;10172;42.054;24.546;2023-07-31T01:56:41;2.00;;;1.20;;
20022;SDS011;10172;42.054;24.546;2023-07-31T01:59:07;3.03;;;1.38;;
20022;SDS011;10172;42.054;24.546;2023-07-31T02:01:32;1.98;;;1.15;;
20022;SDS011;10172;42.054;24.546;2023-07-31T02:03:58;6.35;;;1.30;;
20022;SDS011;10172;42.054;24.546;2023-07-31T02:06:23;2.50;;;1.23;;
20022;SDS011;10172;42.054;24.546;2023-07-31T02:08:49;1.33;;;1.13;;
20022;SDS011;10172;42.054;24.546;2023-07-31T02:11:14;2.53;;;1.42;;
20022;SDS011;10172;42.054;24.546;2023-07-31T02:13:40;2.35;;;1.38;;
20022;SDS011;10172;42.054;24.546;2023-07-31T02:16:05;2.10;;;1.55;;
20022;SDS011;10172;42.054;24.546;2023-07-31T02:18:31;2.90;;;1.75;;
20022;SDS011;10172;42.054;24.546;2023-07-31T02:20:56;4.32;;;1.95;;
20022;SDS011;10172;42.054;24.546;2023-07-31T02:23:22;2.00;;;1.50;;
20022;SDS011;10172;42.054;24.546;2023-07-31T02:25:47;1.83;;;1.42;;
20022;SDS011;10172;42.054;24.546;2023-07-31T02:28:13;3.72;;;1.60;;
20022;SDS011;10172;42.054;24.546;2023-07-31T02:30:38;2.03;;;1.33;;
20022;SDS011;10172;42.054;24.546;2023-07-31T02:33:04;5.45;;;1.70;;
20022;SDS011;10172;42.054;24.546;2023-07-31T02:35:30;2.83;;;1.50;;
20022;SDS011;10172;42.054;24.546;2023-07-31T02:37:56;3.35;;;1.63;;
20022;SDS011;10172;42.054;24.546;2023-07-31T02:40:21;2.05;;;1.42;;
20022;SDS011;10172;42.054;24.546;2023-07-31T02:42:47;4.10;;;1.90;;
20022;SDS011;10172;42.054;24.546;2023-07-31T02:45:12;4.00;;;2.08;;
20022;SDS011;10172;42.054;24.546;2023-07-31T02:47:38;1.95;;;1.25;;
20022;SDS011;10172;42.054;24.546;2023-07-31T02:50:03;2.47;;;1.40;;
20022;SDS011;10172;42.054;24.546;2023-07-31T02:52:29;2.20;;;1.60;;
20022;SDS011;10172;42.054;24.546;2023-07-31T02:54:55;3.17;;;1.80;;
20022;SDS011;10172;42.054;24.546;2023-07-31T02:57:21;2.42;;;1.50;;
20022;SDS011;10172;42.054;24.546;2023-07-31T02:59:46;5.30;;;1.70;;
20022;SDS011;10172;42.054;24.546;2023-07-31T03:02:12;2.78;;;1.67;;
20022;SDS011;10172;42.054;24.546;2023-07-31T03:04:38;2.10;;;1.50;;
20022;SDS011;10172;42.054;24.546;2023-07-31T03:07:03;2.30;;;1.50;;
20022;SDS011;10172;42.054;24.546;2023-07-31T03:09:29;2.03;;;1.30;;
20022;SDS011;10172;42.054;24.546;2023-07-31T03:11:55;3.38;;;1.35;;
20022;SDS011;10172;42.054;24.546;2023-07-31T03:14:20;2.55;;;1.40;;
20022;SDS011;10172;42.054;24.546;2023-07-31T03:16:46;1.98;;;1.45;;
20022;SDS011;10172;42.054;24.546;2023-07-31T03:19:11;3.03;;;1.50;;
20022;SDS011;10172;42.054;24.546;2023-07-31T03:21:36;4.55;;;2.08;;
20022;SDS011;10172;42.054;24.546;2023-07-31T03:24:02;1.90;;;1.33;;
20022;SDS011;10172;42.054;24.546;2023-07-31T03:26:30;3.38;;;1.83;;
20022;SDS011;10172;42.054;24.546;2023-07-31T03:28:56;3.78;;;1.95;;
20022;SDS011;10172;42.054;24.546;2023-07-31T03:31:22;2.97;;;1.80;;
20022;SDS011;10172;42.054;24.546;2023-07-31T03:33:47;3.38;;;1.83;;
20022;SDS011;10172;42.054;24.546;2023-07-31T03:36:13;5.13;;;2.35;;
20022;SDS011;10172;42.054;24.546;2023-07-31T03:38:38;4.88;;;2.10;;
20022;SDS011;10172;42.054;24.546;2023-07-31T03:41:04;2.63;;;1.48;;
20022;SDS011;10172;42.054;24.546;2023-07-31T03:43:31;2.63;;;1.80;;
20022;SDS011;10172;42.054;24.546;2023-07-31T03:45:58;4.20;;;2.40;;
20022;SDS011;10172;42.054;24.546;2023-07-31T03:48:24;5.18;;;2.22;;
20022;SDS011;10172;42.054;24.546;2023-07-31T03:50:50;3.50;;;2.03;;
20022;SDS011;10172;42.054;24.546;2023-07-31T03:53:15;4.53;;;1.65;;
20022;SDS011;10172;42.054;24.546;2023-07-31T03:55:41;3.10;;;1.92;;
20022;SDS011;10172;42.054;24.546;2023-07-31T03:58:06;3.08;;;1.90;;
20022;SDS011;10172;42.054;24.546;2023-07-31T04:00:32;3.17;;;1.75;;
20022;SDS011;10172;42.054;24.546;2023-07-31T04:02:57;3.60;;;2.13;;
20022;SDS011;10172;42.054;24.546;2023-07-31T04:05:23;5.40;;;2.28;;
20022;SDS011;10172;42.054;24.546;2023-07-31T04:07:48;2.63;;;2.00;;
20022;SDS011;10172;42.054;24.546;2023-07-31T04:10:14;4.25;;;2.33;;
20022;SDS011;10172;42.054;24.546;2023-07-31T04:12:39;3.47;;;2.15;;
20022;SDS011;10172;42.054;24.546;2023-07-31T04:15:05;3.60;;;2.15;;
20022;SDS011;10172;42.054;24.546;2023-07-31T04:17:30;3.60;;;2.45;;
20022;SDS011;10172;42.054;24.546;2023-07-31T04:19:56;3.55;;;2.50;;
20022;SDS011;10172;42.054;24.546;2023-07-31T04:22:21;3.50;;;2.13;;
20022;SDS011;10172;42.054;24.546;2023-07-31T04:24:47;4.13;;;2.35;;
20022;SDS011;10172;42.054;24.546;2023-07-31T04:27:13;3.40;;;2.35;;
20022;SDS011;10172;42.054;24.546;2023-07-31T04:29:38;3.13;;;1.98;;
20022;SDS011;10172;42.054;24.546;2023-07-31T04:32:05;4.13;;;2.30;;
20022;SDS011;10172;42.054;24.546;2023-07-31T04:34:30;3.65;;;2.03;;
20022;SDS011;10172;42.054;24.546;2023-07-31T04:36:56;2.72;;;2.08;;
20022;SDS011;10172;42.054;24.546;2023-07-31T04:39:21;4.30;;;2.00;;
20022;SDS011;10172;42.054;24.546;2023-07-31T04:41:47;4.20;;;2.10;;
20022;SDS011;10172;42.054;24.546;2023-07-31T04:44:12;2.97;;;1.85;;
20022;SDS011;10172;42.054;24.546;2023-07-31T04:46:38;4.07;;;2.35;;
20022;SDS011;10172;42.054;24.546;2023-07-31T04:49:03;3.15;;;2.08;;
20022;SDS011;10172;42.054;24.546;2023-07-31T04:51:29;3.30;;;2.05;;
20022;SDS011;10172;42.054;24.546;2023-07-31T04:53:54;2.75;;;1.90;;
20022;SDS011;10172;42.054;24.546;2023-07-31T04:56:20;3.65;;;2.28;;
20022;SDS011;10172;42.054;24.546;2023-07-31T04:58:46;5.30;;;2.58;;
20022;SDS011;10172;42.054;24.546;2023-07-31T05:01:11;3.65;;;2.28;;
20022;SDS011;10172;42.054;24.546;2023-07-31T05:03:37;3.17;;;2.17;;
20022;SDS011;10172;42.054;24.546;2023-07-31T05:06:02;4.10;;;2.22;;
20022;SDS011;10172;42.054;24.546;2023-07-31T05:08:28;3.05;;;2.03;;
20022;SDS011;10172;42.054;24.546;2023-07-31T05:10:53;3.70;;;2.50;;
20022;SDS011;10172;42.054;24.546;2023-07-31T05:13:19;4.35;;;2.55;;
20022;SDS011;10172;42.054;24.546;2023-07-31T05:15:45;3.70;;;2.47;;
20022;SDS011;10172;42.054;24.546;2023-07-31T05:18:10;3.42;;;2.58;;
20022;SDS011;10172;42.054;24.546;2023-07-31T05:20:36;4.65;;;2.85;;
20022;SDS011;10172;42.054;24.546;2023-07-31T05:23:01;4.25;;;2.78;;
20022;SDS011;10172;42.054;24.546;2023-07-31T05:25:27;3.22;;;2.33;;
20022;SDS011;10172;42.054;24.546;2023-07-31T05:27:52;3.78;;;2.33;;
20022;SDS011;10172;42.054;24.546;2023-07-31T05:30:18;4.25;;;3.03;;
20022;SDS011;10172;42.054;24.546;2023-07-31T05:32:43;5.90;;;2.63;;
20022;SDS011;10172;42.054;24.546;2023-07-31T05:35:09;4.15;;;2.63;;
20022;SDS011;10172;42.054;24.546;2023-07-31T05:37:34;6.85;;;3.30;;
20022;SDS011;10172;42.054;24.546;2023-07-31T05:40:00;4.97;;;2.50;;
20022;SDS011;10172;42.054;24.546;2023-07-31T05:42:25;4.15;;;2.90;;
20022;SDS011;10172;42.054;24.546;2023-07-31T05:44:51;5.78;;;3.10;;
20022;SDS011;10172;42.054;24.546;2023-07-31T05:47:17;4.90;;;2.90;;
20022;SDS011;10172;42.054;24.546;2023-07-31T05:49:43;6.25;;;2.95;;
20022;SDS011;10172;42.054;24.546;2023-07-31T05:52:09;4.78;;;2.92;;
20022;SDS011;10172;42.054;24.546;2023-07-31T05:54:35;5.30;;;2.90;;
20022;SDS011;10172;42.054;24.546;2023-07-31T05:57:00;3.95;;;2.92;;
20022;SDS011;10172;42.054;24.546;2023-07-31T05:59:25;4.32;;;2.50;;
20022;SDS011;10172;42.054;24.546;2023-07-31T06:01:51;3.28;;;2.40;;
20022;SDS011;10172;42.054;24.546;2023-07-31T06:04:16;6.13;;;2.53;;
20022;SDS011;10172;42.054;24.546;2023-07-31T06:06:42;3.85;;;2.63;;
20022;SDS011;10172;42.054;24.546;2023-07-31T06:09:08;4.10;;;2.40;;
20022;SDS011;10172;42.054;24.546;2023-07-31T06:11:33;5.95;;;3.03;;
20022;SDS011;10172;42.054;24.546;2023-07-31T06:13:59;5.10;;;3.42;;
20022;SDS011;10172;42.054;24.546;2023-07-31T06:16:24;3.78;;;2.92;;
20022;SDS011;10172;42.054;24.546;2023-07-31T06:18:50;5.07;;;2.55;;
20022;SDS011;10172;42.054;24.546;2023-07-31T06:21:15;6.35;;;3.90;;
20022;SDS011;10172;42.054;24.546;2023-07-31T06:23:42;7.72;;;3.58;;
20022;SDS011;10172;42.054;24.546;2023-07-31T06:26:07;5.63;;;3.63;;
20022;SDS011;10172;42.054;24.546;2023-07-31T06:28:33;6.50;;;4.30;;
20022;SDS011;10172;42.054;24.546;2023-07-31T06:30:59;7.82;;;4.30;;
20022;SDS011;10172;42.054;24.546;2023-07-31T06:33:25;5.85;;;4.03;;
20022;SDS011;10172;42.054;24.546;2023-07-31T06:35:51;6.35;;;4.55;;
20022;SDS011;10172;42.054;24.546;2023-07-31T06:38:22;6.43;;;4.43;;
20022;SDS011;10172;42.054;24.546;2023-07-31T06:40:49;5.88;;;4.15;;
20022;SDS011;10172;42.054;24.546;2023-07-31T06:43:15;7.05;;;4.60;;
20022;SDS011;10172;42.054;24.546;2023-07-31T06:45:40;7.20;;;4.85;;
20022;SDS011;10172;42.054;24.546;2023-07-31T06:48:06;6.72;;;4.53;;
20022;SDS011;10172;42.054;24.546;2023-07-31T06:50:32;8.55;;;4.70;;
20022;SDS011;10172;42.054;24.546;2023-07-31T06:52:57;7.82;;;5.18;;
20022;SDS011;10172;42.054;24.546;2023-07-31T06:55:23;10.27;;;5.93;;
20022;SDS011;10172;42.054;24.546;2023-07-31T06:57:50;9.10;;;5.70;;
20022;SDS011;10172;42.054;24.546;2023-07-31T07:00:17;12.77;;;5.95;;
20022;SDS011;10172;42.054;24.546;2023-07-31T07:02:44;9.15;;;6.15;;
20022;SDS011;10172;42.054;24.546;2023-07-31T07:05:10;9.57;;;6.25;;
20022;SDS011;10172;42.054;24.546;2023-07-31T07:07:35;10.50;;;6.32;;
20022;SDS011;10172;42.054;24.546;2023-07-31T07:10:02;9.77;;;6.65;;
20022;SDS011;10172;42.054;24.546;2023-07-31T07:12:29;8.93;;;5.75;;
20022;SDS011;10172;42.054;24.546;2023-07-31T07:14:55;10.43;;;6.57;;
20022;SDS011;10172;42.054;24.546;2023-07-31T07:17:22;10.55;;;6.88;;
20022;SDS011;10172;42.054;24.546;2023-07-31T07:19:48;11.00;;;7.47;;
20022;SDS011;10172;42.054;24.546;2023-07-31T07:22:14;11.07;;;7.20;;
20022;SDS011;10172;42.054;24.546;2023-07-31T07:24:39;12.18;;;6.97;;
20022;SDS011;10172;42.054;24.546;2023-07-31T07:27:05;10.57;;;7.47;;
20022;SDS011;10172;42.054;24.546;2023-07-31T07:29:31;12.98;;;7.28;;
20022;SDS011;10172;42.054;24.546;2023-07-31T07:31:59;11.30;;;7.07;;
20022;SDS011;10172;42.054;24.546;2023-07-31T07:34:25;10.50;;;7.20;;
20022;SDS011;10172;42.054;24.546;2023-07-31T07:36:52;11.00;;;7.28;;
20022;SDS011;10172;42.054;24.546;2023-07-31T07:39:17;13.05;;;7.75;;
20022;SDS011;10172;42.054;24.546;2023-07-31T07:41:43;10.68;;;7.15;;
20022;SDS011;10172;42.054;24.546;2023-07-31T07:44:08;12.48;;;7.95;;
20022;SDS011;10172;42.054;24.546;2023-07-31T07:46:34;11.43;;;7.05;;
20022;SDS011;10172;42.054;24.546;2023-07-31T07:49:00;14.02;;;8.57;;
20022;SDS011;10172;42.054;24.546;2023-07-31T07:51:25;14.80;;;7.70;;
20022;SDS011;10172;42.054;24.546;2023-07-31T07:53:51;10.85;;;7.75;;
20022;SDS011;10172;42.054;24.546;2023-07-31T07:56:16;11.90;;;7.70;;
20022;SDS011;10172;42.054;24.546;2023-07-31T07:58:42;11.30;;;7.53;;
20022;SDS011;10172;42.054;24.546;2023-07-31T08:01:07;12.52;;;7.95;;
20022;SDS011;10172;42.054;24.546;2023-07-31T08:03:33;11.73;;;7.57;;
20022;SDS011;10172;42.054;24.546;2023-07-31T08:05:59;13.35;;;8.20;;
20022;SDS011;10172;42.054;24.546;2023-07-31T08:08:25;13.13;;;8.68;;
20022;SDS011;10172;42.054;24.546;2023-07-31T08:10:51;13.73;;;7.63;;
20022;SDS011;10172;42.054;24.546;2023-07-31T08:13:16;11.18;;;7.57;;
20022;SDS011;10172;42.054;24.546;2023-07-31T08:15:42;13.02;;;7.50;;
20022;SDS011;10172;42.054;24.546;2023-07-31T08:18:08;9.75;;;6.97;;
20022;SDS011;10172;42.054;24.546;2023-07-31T08:20:34;11.75;;;7.35;;
20022;SDS011;10172;42.054;24.546;2023-07-31T08:22:59;11.88;;;7.85;;
20022;SDS011;10172;42.054;24.546;2023-07-31T08:25:25;11.77;;;7.93;;
20022;SDS011;10172;42.054;24.546;2023-07-31T08:27:50;13.65;;;8.40;;
20022;SDS011;10172;42.054;24.546;2023-07-31T08:30:18;11.05;;;7.65;;
20022;SDS011;10172;42.054;24.546;2023-07-31T08:32:44;12.25;;;7.63;;
20022;SDS011;10172;42.054;24.546;2023-07-31T08:35:09;11.80;;;7.10;;
20022;SDS011;10172;42.054;24.546;2023-07-31T08:37:35;11.23;;;7.45;;
20022;SDS011;10172;42.054;24.546;2023-07-31T08:40:01;12.32;;;7.80;;
20022;SDS011;10172;42.054;24.546;2023-07-31T08:42:27;12.70;;;7.75;;
20022;SDS011;10172;42.054;24.546;2023-07-31T08:44:52;11.15;;;7.13;;
20022;SDS011;10172;42.054;24.546;2023-07-31T08:47:21;13.35;;;8.10;;
20022;SDS011;10172;42.054;24.546;2023-07-31T08:49:47;11.93;;;6.95;;
20022;SDS011;10172;42.054;24.546;2023-07-31T08:52:13;12.95;;;7.45;;
20022;SDS011;10172;42.054;24.546;2023-07-31T08:54:39;11.38;;;6.82;;
20022;SDS011;10172;42.054;24.546;2023-07-31T08:57:05;9.75;;;5.90;;
20022;SDS011;10172;42.054;24.546;2023-07-31T08:59:33;11.48;;;7.32;;
20022;SDS011;10172;42.054;24.546;2023-07-31T09:02:05;9.48;;;5.70;;
20022;SDS011;10172;42.054;24.546;2023-07-31T09:04:32;8.32;;;5.30;;
20022;SDS011;10172;42.054;24.546;2023-07-31T09:07:02;10.25;;;5.72;;
20022;SDS011;10172;42.054;24.546;2023-07-31T09:09:29;11.60;;;6.28;;
20022;SDS011;10172;42.054;24.546;2023-07-31T09:11:57;8.43;;;5.78;;
20022;SDS011;10172;42.054;24.546;2023-07-31T09:14:24;9.73;;;5.88;;
20022;SDS011;10172;42.054;24.546;2023-07-31T09:21:52;9.40;;;5.90;;
20022;SDS011;10172;42.054;24.546;2023-07-31T09:24:24;9.55;;;5.88;;
20022;SDS011;10172;42.054;24.546;2023-07-31T09:26:53;13.45;;;5.82;;
20022;SDS011;10172;42.054;24.546;2023-07-31T09:29:23;9.65;;;6.20;;
20022;SDS011;10172;42.054;24.546;2023-07-31T09:31:50;8.05;;;5.45;;
20022;SDS011;10172;42.054;24.546;2023-07-31T09:34:16;8.82;;;5.32;;
20022;SDS011;10172;42.054;24.546;2023-07-31T09:36:48;7.95;;;5.32;;
20022;SDS011;10172;42.054;24.546;2023-07-31T09:39:16;7.53;;;5.20;;
20022;SDS011;10172;42.054;24.546;2023-07-31T09:41:47;7.35;;;4.45;;
20022;SDS011;10172;42.054;24.546;2023-07-31T09:44:19;7.15;;;4.65;;
20022;SDS011;10172;42.054;24.546;2023-07-31T09:46:45;7.45;;;4.30;;
20022;SDS011;10172;42.054;24.546;2023-07-31T09:49:11;5.95;;;4.28;;
20022;SDS011;10172;42.054;24.546;2023-07-31T09:51:37;6.97;;;4.28;;
20022;SDS011;10172;42.054;24.546;2023-07-31T09:54:08;6.35;;;3.88;;
20022;SDS011;10172;42.054;24.546;2023-07-31T09:56:44;8.25;;;4.88;;
20022;SDS011;10172;42.054;24.546;2023-07-31T09:59:12;5.15;;;3.90;;
20022;SDS011;10172;42.054;24.546;2023-07-31T10:01:42;6.38;;;3.65;;
20022;SDS011;10172;42.054;24.546;2023-07-31T10:04:09;5.10;;;3.35;;
20022;SDS011;10172;42.054;24.546;2023-07-31T10:06:36;5.03;;;3.15;;
20022;SDS011;10172;42.054;24.546;2023-07-31T10:09:07;4.95;;;3.40;;
20022;SDS011;10172;42.054;24.546;2023-07-31T10:11:53;4.47;;;2.85;;
20022;SDS011;10172;42.054;24.546;2023-07-31T10:14:24;4.05;;;2.50;;
20022;SDS011;10172;42.054;24.546;2023-07-31T10:16:51;4.82;;;2.67;;
20022;SDS011;10172;42.054;24.546;2023-07-31T10:19:18;7.10;;;2.65;;
20022;SDS011;10172;42.054;24.546;2023-07-31T10:21:45;5.45;;;2.90;;
20022;SDS011;10172;42.054;24.546;2023-07-31T10:24:13;5.88;;;3.10;;
20022;SDS011;10172;42.054;24.546;2023-07-31T10:26:40;5.45;;;3.20;;
20022;SDS011;10172;42.054;24.546;2023-07-31T10:29:06;5.20;;;3.15;;
20022;SDS011;10172;42.054;24.546;2023-07-31T10:31:32;5.88;;;3.38;;
20022;SDS011;10172;42.054;24.546;2023-07-31T10:33:59;4.97;;;3.03;;
20022;SDS011;10172;42.054;24.546;2023-07-31T10:36:25;4.22;;;2.40;;
20022;SDS011;10172;42.054;24.546;2023-07-31T10:38:52;4.50;;;3.00;;
20022;SDS011;10172;42.054;24.546;2023-07-31T10:41:17;4.95;;;2.78;;
20022;SDS011;10172;42.054;24.546;2023-07-31T10:43:45;4.55;;;3.10;;
20022;SDS011;10172;42.054;24.546;2023-07-31T10:46:12;4.55;;;2.45;;
20022;SDS011;10172;42.054;24.546;2023-07-31T10:48:39;2.97;;;1.95;;
20022;SDS011;10172;42.054;24.546;2023-07-31T10:51:09;2.88;;;1.88;;
20022;SDS011;10172;42.054;24.546;2023-07-31T10:53:41;3.65;;;2.50;;
20022;SDS011;10172;42.054;24.546;2023-07-31T10:56:07;4.25;;;2.42;;
20022;SDS011;10172;42.054;24.546;2023-07-31T10:58:36;3.17;;;1.90;;
20022;SDS011;10172;42.054;24.546;2023-07-31T11:01:03;4.35;;;2.30;;
20022;SDS011;10172;42.054;24.546;2023-07-31T11:06:14;4.88;;;2.47;;
20022;SDS011;10172;42.054;24.546;2023-07-31T11:11:11;5.03;;;2.28;;
20022;SDS011;10172;42.054;24.546;2023-07-31T11:16:08;4.82;;;1.92;;
20022;SDS011;10172;42.054;24.546;2023-07-31T11:18:34;3.10;;;1.88;;
20022;SDS011;10172;42.054;24.546;2023-07-31T11:21:00;3.03;;;1.88;;
20022;SDS011;10172;42.054;24.546;2023-07-31T11:23:26;3.10;;;1.80;;
20022;SDS011;10172;42.054;24.546;2023-07-31T11:25:51;2.92;;;1.67;;
20022;SDS011;10172;42.054;24.546;2023-07-31T11:28:17;2.28;;;1.60;;
20022;SDS011;10172;42.054;24.546;2023-07-31T11:30:44;3.05;;;1.90;;
20022;SDS011;10172;42.054;24.546;2023-07-31T11:33:11;3.10;;;1.73;;
20022;SDS011;10172;42.054;24.546;2023-07-31T11:35:42;2.45;;;1.90;;
20022;SDS011;10172;42.054;24.546;2023-07-31T11:38:10;4.05;;;2.20;;
20022;SDS011;10172;42.054;24.546;2023-07-31T11:40:41;2.28;;;1.52;;
20022;SDS011;10172;42.054;24.546;2023-07-31T11:43:07;3.20;;;1.70;;
20022;SDS011;10172;42.054;24.546;2023-07-31T11:45:33;3.00;;;2.25;;
20022;SDS011;10172;42.054;24.546;2023-07-31T11:48:00;3.85;;;2.33;;
20022;SDS011;10172;42.054;24.546;2023-07-31T11:50:26;5.15;;;2.90;;
20022;SDS011;10172;42.054;24.546;2023-07-31T11:52:55;4.07;;;2.55;;
20022;SDS011;10172;42.054;24.546;2023-07-31T11:55:24;4.90;;;2.80;;
20022;SDS011;10172;42.054;24.546;2023-07-31T11:57:51;2.75;;;2.28;;
20022;SDS011;10172;42.054;24.546;2023-07-31T12:00:18;3.50;;;2.53;;
20022;SDS011;10172;42.054;24.546;2023-07-31T12:02:44;4.38;;;3.40;;
20022;SDS011;10172;42.054;24.546;2023-07-31T12:05:10;5.38;;;3.58;;
20022;SDS011;10172;42.054;24.546;2023-07-31T12:07:47;6.03;;;3.70;;
20022;SDS011;10172;42.054;24.546;2023-07-31T12:10:24;5.53;;;3.28;;
20022;SDS011;10172;42.054;24.546;2023-07-31T12:13:05;5.07;;;3.47;;
20022;SDS011;10172;42.054;24.546;2023-07-31T12:15:44;4.93;;;3.08;;
20022;SDS011;10172;42.054;24.546;2023-07-31T12:20:41;3.58;;;2.88;;
20022;SDS011;10172;42.054;24.546;2023-07-31T12:25:41;4.88;;;3.20;;
20022;SDS011;10172;42.054;24.546;2023-07-31T12:28:07;4.25;;;2.28;;
20022;SDS011;10172;42.054;24.546;2023-07-31T12:30:36;4.07;;;2.47;;
20022;SDS011;10172;42.054;24.546;2023-07-31T12:33:04;3.50;;;2.42;;
20022;SDS011;10172;42.054;24.546;2023-07-31T12:35:35;3.83;;;2.25;;
20022;SDS011;10172;42.054;24.546;2023-07-31T12:38:02;2.80;;;1.90;;
20022;SDS011;10172;42.054;24.546;2023-07-31T12:40:27;5.38;;;2.70;;
20022;SDS011;10172;42.054;24.546;2023-07-31T12:42:53;4.15;;;2.55;;
20022;SDS011;10172;42.054;24.546;2023-07-31T12:45:18;3.22;;;2.40;;
20022;SDS011;10172;42.054;24.546;2023-07-31T12:47:46;3.72;;;2.33;;
20022;SDS011;10172;42.054;24.546;2023-07-31T12:50:11;3.92;;;2.45;;
20022;SDS011;10172;42.054;24.546;2023-07-31T12:52:37;3.97;;;2.67;;
20022;SDS011;10172;42.054;24.546;2023-07-31T12:55:03;5.47;;;2.58;;
20022;SDS011;10172;42.054;24.546;2023-07-31T12:57:29;3.60;;;2.35;;
20022;SDS011;10172;42.054;24.546;2023-07-31T12:59:55;4.45;;;2.67;;
20022;SDS011;10172;42.054;24.546;2023-07-31T13:02:21;3.13;;;2.13;;
20022;SDS011;10172;42.054;24.546;2023-07-31T13:04:46;3.72;;;2.67;;
20022;SDS011;10172;42.054;24.546;2023-07-31T13:07:12;4.13;;;2.78;;
20022;SDS011;10172;42.054;24.546;2023-07-31T13:09:37;4.13;;;3.10;;
20022;SDS011;10172;42.054;24.546;2023-07-31T13:12:03;4.65;;;2.75;;
20022;SDS011;10172;42.054;24.546;2023-07-31T13:14:28;5.65;;;2.45;;
20022;SDS011;10172;42.054;24.546;2023-07-31T13:16:54;3.65;;;2.38;;
20022;SDS011;10172;42.054;24.546;2023-07-31T13:19:19;4.35;;;2.55;;
20022;SDS011;10172;42.054;24.546;2023-07-31T13:21:45;5.38;;;2.72;;
20022;SDS011;10172;42.054;24.546;2023-07-31T13:24:10;3.33;;;2.17;;
20022;SDS011;10172;42.054;24.546;2023-07-31T13:26:36;4.05;;;2.75;;
20022;SDS011;10172;42.054;24.546;2023-07-31T13:29:02;3.53;;;2.17;;
20022;SDS011;10172;42.054;24.546;2023-07-31T13:31:27;4.40;;;2.28;;
20022;SDS011;10172;42.054;24.546;2023-07-31T13:33:53;2.92;;;1.70;;
20022;SDS011;10172;42.054;24.546;2023-07-31T13:36:18;3.17;;;2.00;;
20022;SDS011;10172;42.054;24.546;2023-07-31T13:38:44;2.88;;;1.88;;
20022;SDS011;10172;42.054;24.546;2023-07-31T13:41:09;2.60;;;1.75;;
20022;SDS011;10172;42.054;24.546;2023-07-31T13:43:35;3.35;;;1.90;;
20022;SDS011;10172;42.054;24.546;2023-07-31T13:46:00;2.97;;;1.73;;
20022;SDS011;10172;42.054;24.546;2023-07-31T13:48:31;2.17;;;1.60;;
20022;SDS011;10172;42.054;24.546;2023-07-31T13:50:59;3.22;;;1.92;;
20022;SDS011;10172;42.054;24.546;2023-07-31T13:53:24;4.63;;;2.45;;
20022;SDS011;10172;42.054;24.546;2023-07-31T13:55:50;2.40;;;1.65;;
20022;SDS011;10172;42.054;24.546;2023-07-31T13:58:15;3.33;;;1.85;;
20022;SDS011;10172;42.054;24.546;2023-07-31T14:00:40;2.58;;;1.80;;
20022;SDS011;10172;42.054;24.546;2023-07-31T14:03:06;2.72;;;1.67;;
20022;SDS011;10172;42.054;24.546;2023-07-31T14:05:31;2.22;;;1.40;;
20022;SDS011;10172;42.054;24.546;2023-07-31T14:07:57;2.63;;;1.75;;
20022;SDS011;10172;42.054;24.546;2023-07-31T14:10:22;2.28;;;1.50;;
20022;SDS011;10172;42.054;24.546;2023-07-31T14:12:48;4.50;;;1.58;;
20022;SDS011;10172;42.054;24.546;2023-07-31T14:15:13;3.83;;;1.35;;
20022;SDS011;10172;42.054;24.546;2023-07-31T14:17:39;3.17;;;1.67;;
20022;SDS011;10172;42.054;24.546;2023-07-31T14:20:04;2.30;;;1.48;;
20022;SDS011;10172;42.054;24.546;2023-07-31T14:22:33;2.85;;;1.55;;
20022;SDS011;10172;42.054;24.546;2023-07-31T14:24:59;2.60;;;1.42;;
20022;SDS011;10172;42.054;24.546;2023-07-31T14:27:25;2.00;;;1.38;;
20022;SDS011;10172;42.054;24.546;2023-07-31T14:29:50;2.95;;;1.73;;
20022;SDS011;10172;42.054;24.546;2023-07-31T14:32:16;2.38;;;1.20;;
20022;SDS011;10172;42.054;24.546;2023-07-31T14:34:41;1.75;;;1.40;;
20022;SDS011;10172;42.054;24.546;2023-07-31T14:37:07;2.50;;;1.13;;
20022;SDS011;10172;42.054;24.546;2023-07-31T14:39:32;3.85;;;1.50;;
20022;SDS011;10172;42.054;24.546;2023-07-31T14:41:58;1.92;;;1.38;;
20022;SDS011;10172;42.054;24.546;2023-07-31T14:44:23;2.65;;;1.65;;
20022;SDS011;10172;42.054;24.546;2023-07-31T14:46:49;2.33;;;1.25;;
20022;SDS011;10172;42.054;24.546;2023-07-31T14:49:14;2.78;;;1.52;;
20022;SDS011;10172;42.054;24.546;2023-07-31T14:51:39;2.78;;;1.73;;
20022;SDS011;10172;42.054;24.546;2023-07-31T14:54:05;1.98;;;1.48;;
20022;SDS011;10172;42.054;24.546;2023-07-31T14:56:30;2.13;;;1.20;;